createdAt,value
2019-01-13T11:10:15.557Z,3.30
2019-01-13T11:12:46.582Z,1.40
2019-01-13T11:15:21.557Z,1.33
2019-01-13T11:17:48.031Z,0.87
2019-01-13T11:20:24.070Z,1.33
2019-01-13T11:22:55.101Z,0.40
2019-01-13T11:25:25.793Z,1.83
2019-01-13T11:27:56.774Z,1.90
2019-01-13T11:37:16.115Z,1.17
2019-01-13T11:45:40.696Z,0.80
2019-01-13T11:49:39.796Z,0.43
2019-01-13T11:52:10.518Z,0.47
2019-01-13T11:54:41.598Z,0.40
2019-01-13T11:57:12.328Z,0.50
2019-01-13T11:59:43.653Z,2.00
2019-01-13T12:02:14.365Z,0.97
2019-01-13T12:04:45.414Z,0.40
2019-01-13T12:07:16.500Z,0.50
2019-01-13T12:09:47.609Z,2.47
2019-01-13T12:12:18.640Z,0.60
2019-01-13T12:14:49.739Z,1.70
2019-01-13T12:17:20.827Z,2.47
2019-01-13T12:19:52.567Z,1.33
2019-01-13T12:22:23.300Z,0.77
2019-01-13T12:24:54.071Z,0.40
2019-01-13T12:27:25.055Z,0.67
2019-01-13T12:29:56.109Z,0.53
2019-01-13T12:32:27.465Z,1.00
2019-01-13T12:34:58.510Z,1.23
2019-01-13T12:37:29.900Z,1.00
2019-01-13T12:40:01.249Z,0.90
2019-01-13T12:48:18.000Z,0.90
2019-01-13T12:50:51.791Z,1.63
2019-01-13T12:53:22.854Z,0.67
2019-01-13T12:55:53.983Z,0.90
2019-01-13T13:07:05.256Z,0.93
2019-01-13T13:09:35.967Z,0.80
2019-01-13T18:03:11.512Z,0.50
2019-01-13T18:05:41.540Z,0.60
2019-01-13T18:08:11.543Z,1.10
2019-01-13T18:10:41.564Z,0.70
2019-01-13T18:13:11.610Z,1.40
2019-01-13T18:15:41.614Z,0.70
2019-01-13T18:18:11.966Z,0.60
2019-01-13T18:23:24.134Z,0.60
2019-01-13T18:25:54.191Z,0.50
2019-01-13T18:28:24.258Z,0.70
2019-01-13T18:30:54.636Z,0.80
2019-01-13T18:33:24.662Z,0.70
2019-01-13T18:35:54.691Z,2.23
2019-01-13T18:38:24.705Z,0.40
2019-01-13T18:40:54.730Z,0.97
2019-01-13T18:43:24.751Z,0.80
2019-01-13T18:45:55.160Z,1.90
2019-01-13T18:48:25.456Z,1.03
2019-01-13T18:50:55.532Z,1.57
2019-01-13T18:53:25.548Z,1.53
2019-01-13T18:55:55.923Z,1.80
2019-01-13T18:58:25.936Z,1.53
2019-01-13T19:00:55.969Z,1.27
2019-01-13T19:03:26.282Z,3.53
2019-01-13T19:05:56.605Z,1.83
2019-01-13T19:08:27.022Z,1.47
2019-01-13T19:10:57.349Z,2.07
2019-01-13T19:13:29.923Z,2.83
2019-01-13T19:16:00.240Z,1.60
2019-01-13T19:18:30.605Z,2.23
2019-01-13T19:21:00.994Z,2.87
2019-01-13T19:23:31.312Z,1.77
2019-01-13T19:26:01.629Z,2.20
2019-01-13T19:28:31.970Z,3.33
2019-01-13T19:31:01.995Z,2.07
2019-01-13T19:33:32.000Z,3.80
2019-01-13T19:36:02.025Z,4.30
2019-01-13T19:38:32.430Z,2.47
2019-01-13T19:41:02.742Z,3.10
2019-01-13T19:43:32.739Z,1.97
2019-01-13T19:46:02.774Z,1.67
2019-01-13T19:48:32.804Z,3.23
2019-01-13T19:51:02.820Z,1.90
2019-01-13T19:53:33.110Z,2.60
2019-01-13T19:56:03.121Z,2.20
2019-01-13T19:58:33.139Z,2.30
2019-01-13T20:01:03.482Z,2.30
2019-01-13T20:03:33.519Z,1.83
2019-01-13T20:06:03.542Z,4.63
2019-01-13T20:08:33.602Z,2.83
2019-01-13T20:11:03.584Z,2.93
2019-01-13T20:13:33.973Z,5.83
2019-01-13T20:16:04.020Z,2.13
2019-01-13T20:18:34.039Z,5.87
2019-01-13T20:21:04.428Z,6.47
2019-01-13T20:23:34.749Z,5.23
2019-01-13T20:26:05.038Z,5.23
2019-01-13T20:28:35.054Z,5.40
2019-01-13T20:31:05.085Z,4.83
2019-01-13T20:33:35.096Z,4.50
2019-01-13T20:36:05.110Z,2.90
2019-01-13T20:38:35.119Z,4.30
2019-01-13T20:41:05.308Z,4.00
2019-01-13T20:43:35.142Z,3.83
2019-01-13T20:46:05.497Z,3.93
2019-01-13T20:48:35.770Z,6.83
2019-01-13T20:51:05.816Z,3.67
2019-01-13T20:53:35.818Z,5.87
2019-01-13T20:56:06.176Z,4.57
2019-01-13T20:58:36.516Z,5.07
2019-01-13T21:01:06.920Z,3.47
2019-01-13T21:03:36.925Z,4.77
2019-01-13T21:06:06.942Z,6.63
2019-01-13T21:08:36.945Z,4.70
2019-01-13T21:11:06.972Z,4.53
2019-01-13T21:13:37.289Z,5.03
2019-01-13T21:16:07.615Z,3.90
2019-01-13T21:18:37.877Z,3.43
2019-01-13T21:21:08.273Z,4.93
2019-01-13T21:23:38.582Z,2.90
2019-01-13T21:26:08.609Z,5.90
2019-01-13T21:28:38.936Z,5.40
2019-01-13T21:31:08.954Z,3.63
2019-01-13T21:33:38.968Z,4.50
2019-01-13T21:36:09.028Z,8.90
2019-01-13T21:38:39.299Z,3.87
2019-01-13T21:41:09.926Z,4.17
2019-01-13T21:43:40.240Z,6.30
2019-01-13T21:46:10.264Z,5.37
2019-01-13T21:48:40.301Z,4.20
2019-01-13T21:51:10.316Z,5.37
2019-01-13T21:53:40.615Z,4.00
2019-01-13T21:56:10.631Z,7.23
2019-01-13T21:58:40.977Z,4.40
2019-01-13T22:01:11.004Z,8.47
2019-01-13T22:03:41.015Z,6.37
2019-01-13T22:06:11.039Z,7.43
2019-01-13T22:08:41.045Z,7.17
2019-01-13T22:11:11.063Z,5.90
2019-01-13T22:13:41.354Z,4.60
2019-01-13T22:16:11.478Z,4.37
2019-01-13T22:18:41.784Z,6.27
2019-01-13T22:21:11.813Z,5.03
2019-01-13T22:23:41.817Z,4.87
2019-01-13T22:26:11.848Z,4.87
2019-01-13T22:28:41.852Z,3.50
2019-01-13T22:31:11.911Z,5.47
2019-01-13T22:33:42.195Z,4.03
2019-01-13T22:36:12.229Z,5.20
2019-01-13T22:38:42.228Z,4.67
2019-01-13T22:41:12.455Z,3.50
2019-01-13T22:43:42.506Z,3.37
2019-01-13T22:46:12.539Z,4.80
2019-01-13T22:48:42.558Z,4.87
2019-01-13T22:51:12.584Z,2.67
2019-01-13T22:53:42.609Z,1.60
2019-01-13T22:56:12.934Z,3.27
2019-01-13T22:58:43.267Z,2.83
2019-01-13T23:01:13.294Z,1.73
2019-01-13T23:03:43.315Z,2.07
2019-01-13T23:06:13.346Z,1.87
2019-01-13T23:08:43.354Z,3.77
2019-01-13T23:11:13.375Z,1.93
2019-01-13T23:13:43.378Z,1.43
2019-01-13T23:16:13.391Z,3.83
2019-01-13T23:18:43.408Z,6.07
2019-01-13T23:21:13.440Z,5.20
2019-01-13T23:23:43.854Z,2.87
2019-01-13T23:26:13.877Z,2.53
2019-01-13T23:28:44.274Z,3.13
2019-01-13T23:31:14.581Z,7.33
2019-01-13T23:33:44.624Z,2.83
2019-01-13T23:36:14.632Z,1.63
2019-01-13T23:38:44.747Z,4.27
2019-01-13T23:41:14.752Z,7.00
2019-01-13T23:43:44.785Z,3.03
2019-01-13T23:46:14.786Z,2.73
2019-01-13T23:48:45.067Z,2.23
2019-01-13T23:51:15.078Z,4.23
2019-01-13T23:53:45.440Z,3.27
2019-01-13T23:56:15.445Z,5.97
2019-01-13T23:58:45.781Z,3.37
